Pagrindinis puslapis
METAR-TAF:

METAR-TAF

Oro uostai :

Kučingas, Malaizija

platuma: 01-29N, ilguma: 110-20E, Aukštis: 27 m

Dabartinis oras

Ataskaita buvo paskelbta 31 minutes, ne 19:30 UTC
Vėjas 1 kt nuo kintamojo kryptimis
Temperatūra 24°C
Drėgmė 94%
Slėgis 1009 hPa
Matomumas: 6000 m
Mažai debesys ne aukštis mažesnis nei 100 ft
Išsisklaidę debesys ne aukštis 2000 ft

METAR: WBGG 251930Z VRB01KT 6000 FEW000 SCT020 24/23 Q1009 NOSIG

Laikas: 04:01 (20:01 UTC)

Prognozė

Ataskaita buvo paskelbta 3 valandos ir 1 minutes, ne 17:00 UTC
Prognozė galioja nuo 25 metu 18 UTC su 26 metu 18 UTC
Vėjas 3 kt nuo kintamojo kryptimis
Matomumas 10 km arba daugiau
Išsisklaidę debesys ne aukštis 2000 ft
Laikinai
nuo 26 metu 07 UTC su 26 metu 11 UTC
Matomumas: 4000 m
Mažai debesys ne aukštis 1500 ft, Liūtiniai kamuoliniai debesys.
perkūnija, lietus

TAF: WBGG 251700Z 2518/2618 VRB03KT 9999 SCT020 TEMPO 2607/2611 4000 TSRA FEW015CB

Orai ataskaitas ir orų prognozės (METAR, TAF).

turimą stotys yra geltonos ir raudonos taškus žemėlapyje.

Perkelti pele per norėdami pamatyti stoties vardą.

Tada spustelėkite, norėdami matyti oro stebėjimo ir prognozės.

Norėdami pakeisti žemėlapį: spustelėkite ant žalios mygtukų su juodo kryžiaus žemyn,; žalią mygtuką su brūkšneliu, jei norite nutolinti; arba žalių rodyklių gretimoms žemėlapius.


METAR-TAF: